SBBE - SBMA

Guest
Details From SBBE - Val De Caes Intl
To SBMA - Maraba
Flight Number -
Tags generated
Created
Modified
Stats Distance 254 nm / 470 km
Max Altitude 23,500 ft / 7,163 m
Waypoints 4
Social Downloads 0
Likes 0
Share VATSIM

Download

Looking for another format? Having issues loading an existing format? Contact us
Advertisement - Login to hide

Notes

Basic altitude profile: - Ascent Rate: 2500ft/min - Ascent Speed: 250kts - Cruise Altitude: 24000ft - Cruise Speed: 420kts - Descent Rate: 1500ft/min - Descent Speed: 250kts

Route

SBBE BROKE UW6 LEMIS SBMA

ID Type Via Altitude Latitude Longitude Leg Dist Tot Dist Heading (true) Name
O SBBE APT - 0 ft / 0 m -1.38078˚ -48.47619˚ - 0 nm - Val De Caes Intl
BROKE FIX - 23,000 ft / 7,010 m -2.72417˚ -48.46067˚ 80 nm 80 nm 179° / 179° -
LEMIS FIX UW6 (AWY-HI) 23,500 ft / 7,163 m -4.45350˚ -48.43767˚ 103 nm 184 nm 179° / 179° -
O SBMA APT - 0 ft / 0 m -5.36859˚ -49.13802˚ 69 nm 253 nm 217° / 217° Maraba

Altitude Profile

Weather

Temperature
Clouds and Precipitation
Forecast for 2016-12-05 18:00 UTC. Updated an hour ago
Winds

SBBE

Details ICAO SBBE (BEL)
Name Val De Caes Intl
Region Brazil
Timezone America/Belem (UTC-3.0)
Stats Elevation 54 ft / 16 m (AMSL)
Location -1.380776° -48.476189°
Runways 2
Magnetic Variation 20.121° W

METAR

SBBE 051600Z 34012KT 9999 BKN035 FEW040TCU 30/24 Q1011

Decode

TAF

TAF SBBE 051000Z 0512/0612 06010KT 9999 SCT020 TX31/0514Z TN24/0604Z BECMG 0513/0515 34010KT BKN030 BECMG 0517/0519 03010KT SCT030 FEW035TCU BECMG 0521/0523 CAVOK BECMG 0601/0603 06005KT BECMG 0609/0611 06010KT 9999 SCT020 RMK PDY

Decode

Departure Runways

ID Width Length Bearing (true) Bearing (mag) Surface Threshold Offset Overrun Length
02 148 ft / 45 m 6,023 ft / 1,836 m 4.48° 24.60° Asphalt 0 ft / 0 m 194 ft / 59 m
06 148 ft / 45 m 9,215 ft / 2,809 m 45.30° 65.42° Asphalt 0 ft / 0 m 0 ft / 0 m
20 148 ft / 45 m 6,023 ft / 1,836 m 184.48° 204.60° Asphalt 0 ft / 0 m 194 ft / 59 m
24 148 ft / 45 m 9,215 ft / 2,809 m 225.30° 245.42° Asphalt 0 ft / 0 m 197 ft / 60 m

SBMA

Details ICAO SBMA (MAB)
Name Maraba
Region Brazil
Timezone America/Belem (UTC-3.0)
Stats Elevation 357 ft / 109 m (AMSL)
Location -5.368588° -49.138025°
Runways 1
Magnetic Variation 20.499° W

METAR

SBMA 051600Z 36004KT 9999 SCT023 33/23 Q1011

Decode

TAF

Not found

Destination Runways

ID Width Length Bearing (true) Bearing (mag) Surface Threshold Offset Overrun Length
07 148 ft / 45 m 6,582 ft / 2,006 m 50.35° 70.85° Asphalt 0 ft / 0 m 195 ft / 59 m
25 148 ft / 45 m 6,582 ft / 2,006 m 230.35° 250.85° Asphalt 0 ft / 0 m 195 ft / 59 m

Popular Alternatives